Time;durP1;ratioP1;P1;durP2;ratioP2;P2;SDS_P1;SDS_P2;PMS_P1;PMS_P2;Temp;Humidity;BMP_temperature;BMP_pressure;BME280_temperature;BME280_humidity;BME280_pressure;Samples;Min_cycle;Max_cycle;Signal;HPM_P1;HPM_P2
2022/06/12 00:01:00;;;;;;;5.63;2.60;;;;;;;24.07;56.05;94707.97;5094209;28;20032;-51
2022/06/12 00:03:26;;;;;;;3.42;2.90;;;;;;;24.03;56.56;94707.53;5090692;28;20055;-52
2022/06/12 00:05:53;;;;;;;3.08;2.45;;;;;;;24.01;56.49;94703.88;5096598;28;20122;-51
2022/06/12 00:08:18;;;;;;;3.33;2.40;;;;;;;24.05;56.76;94704.28;5063509;28;20028;-51
2022/06/12 00:10:45;;;;;;;4.85;2.67;;;;;;;24.04;56.34;94709.00;5082308;28;20498;-52
2022/06/12 00:13:12;;;;;;;5.78;2.78;;;;;;;24.00;56.77;94697.66;5069494;28;20030;-51
2022/06/12 00:15:38;;;;;;;4.65;2.90;;;;;;;24.09;56.56;94699.25;5080550;28;20066;-51
2022/06/12 00:18:04;;;;;;;3.72;2.90;;;;;;;24.05;56.30;94699.56;5082956;28;20585;-53
2022/06/12 00:20:29;;;;;;;3.47;2.70;;;;;;;24.08;56.67;94687.63;5082674;28;20020;-52
2022/06/12 00:22:55;;;;;;;4.18;2.67;;;;;;;24.11;56.42;94689.31;5068436;28;20011;-53
2022/06/12 00:25:22;;;;;;;3.38;2.58;;;;;;;24.11;56.60;94685.81;5080581;28;20081;-52
2022/06/12 00:27:47;;;;;;;3.63;2.92;;;;;;;24.13;56.04;94689.50;5082435;28;20474;-52
2022/06/12 00:30:15;;;;;;;3.78;2.53;;;;;;;24.08;56.38;94698.53;5083908;28;20057;-51
2022/06/12 00:32:40;;;;;;;4.35;3.50;;;;;;;24.12;56.80;94696.22;5070138;28;20082;-51
2022/06/12 00:35:07;;;;;;;4.93;2.90;;;;;;;24.14;56.20;94691.00;5072294;28;20115;-51
2022/06/12 00:37:33;;;;;;;3.70;2.75;;;;;;;24.16;56.59;94693.94;5078317;28;20036;-51
2022/06/12 00:39:58;;;;;;;5.10;2.88;;;;;;;24.11;56.23;94688.56;5084743;28;20039;-52
2022/06/12 00:42:25;;;;;;;4.03;2.45;;;;;;;24.14;56.50;94696.44;5078649;28;20036;-51
2022/06/12 00:44:51;;;;;;;4.55;2.80;;;;;;;24.16;56.67;94693.19;5073427;28;20028;-51
2022/06/12 00:47:17;;;;;;;4.55;3.20;;;;;;;24.23;56.61;94696.03;5085549;28;20213;-51
2022/06/12 00:50:00;;;;;;;5.43;2.67;;;;;;;24.22;56.49;94691.84;5087028;28;20483;-52
2022/06/12 00:52:40;;;;;;;4.60;3.47;;;;;;;24.18;55.94;94696.84;5069862;28;20388;-52
2022/06/12 00:55:24;;;;;;;3.20;2.80;;;;;;;24.17;56.00;94695.41;5081310;28;20468;-52
2022/06/12 00:57:50;;;;;;;20.80;11.73;;;;;;;24.12;56.46;94693.47;5059525;28;20047;-51
2022/06/12 01:00:16;;;;;;;5.43;2.97;;;;;;;24.14;56.07;94690.22;5101118;28;20032;-51
2022/06/12 01:02:42;;;;;;;4.78;2.70;;;;;;;24.08;56.41;94682.16;5104594;28;20033;-52
2022/06/12 01:07:57;;;;;;;3.60;2.80;;;;;;;24.04;56.19;94681.00;5078266;28;20073;-52
2022/06/12 01:10:25;;;;;;;4.60;3.00;;;;;;;24.03;56.25;94680.25;5102698;28;20027;-52
2022/06/12 01:12:56;;;;;;;8.32;3.20;;;;;;;24.06;56.29;94684.66;5083385;28;20093;-51
2022/06/12 01:15:42;;;;;;;4.93;3.00;;;;;;;24.07;56.47;94675.22;5096203;28;20016;-52
2022/06/12 01:18:11;;;;;;;4.68;3.17;;;;;;;24.10;56.37;94682.38;5102747;28;20020;-51
2022/06/12 01:20:48;;;;;;;3.67;2.83;;;;;;;24.09;56.50;94683.63;5092210;28;20096;-51
2022/06/12 01:23:36;;;;;;;4.05;3.03;;;;;;;24.09;56.48;94671.97;5077392;28;20034;-51
2022/06/12 01:26:43;;;;;;;3.90;2.83;;;;;;;24.04;56.39;94670.81;5099913;28;20039;-51
2022/06/12 01:29:38;;;;;;;4.13;2.90;;;;;;;24.03;56.69;94663.88;5070591;28;20487;-51
2022/06/12 01:32:17;;;;;;;4.40;3.03;;;;;;;24.01;56.47;94662.94;5079453;28;20039;-52
2022/06/12 01:34:50;;;;;;;4.97;3.25;;;;;;;24.04;56.33;94651.72;5067562;28;20084;-51
2022/06/12 01:37:53;;;;;;;3.80;2.90;;;;;;;24.05;56.53;94650.47;5062030;28;20407;-51
2022/06/12 01:40:33;;;;;;;3.88;2.90;;;;;;;24.00;56.81;94656.72;5088567;28;20024;-51
2022/06/12 01:43:19;;;;;;;4.72;3.30;;;;;;;24.04;56.34;94653.72;5089088;28;20102;-51
2022/06/12 01:45:53;;;;;;;5.03;3.25;;;;;;;24.02;56.48;94656.97;5058881;28;20024;-51
2022/06/12 01:48:54;;;;;;;4.68;2.75;;;;;;;24.00;56.42;94664.19;5096554;28;20093;-52
2022/06/12 01:51:26;;;;;;;3.72;3.20;;;;;;;24.05;56.98;94658.66;5100374;28;20042;-51
2022/06/12 01:53:56;;;;;;;3.45;2.70;;;;;;;24.11;56.75;94662.03;5085276;28;20024;-51
2022/06/12 01:56:37;;;;;;;4.43;3.05;;;;;;;24.09;55.90;94659.06;5075476;28;20059;-52
2022/06/12 01:59:39;;;;;;;5.03;3.15;;;;;;;24.05;56.23;94669.56;5078252;28;20077;-52
2022/06/12 02:02:22;;;;;;;6.05;2.97;;;;;;;24.08;56.12;94668.53;5084495;28;20035;-52
2022/06/12 02:04:56;;;;;;;4.72;2.88;;;;;;;24.12;56.63;94671.66;5068611;28;20038;-53
2022/06/12 02:07:32;;;;;;;8.27;3.38;;;;;;;24.10;56.22;94666.00;5101785;28;20507;-52
2022/06/12 02:10:17;;;;;;;3.40;2.83;;;;;;;24.03;55.95;94674.78;5050499;28;20024;-52
2022/06/12 02:15:37;;;;;;;3.72;2.97;;;;;;;24.05;56.13;94677.75;5080836;28;20038;-52
2022/06/12 02:18:11;;;;;;;5.38;3.20;;;;;;;23.99;55.98;94662.72;5083360;28;20124;-52
2022/06/12 02:20:38;;;;;;;3.42;3.10;;;;;;;24.01;56.30;94660.94;5074813;28;20024;-53
2022/06/12 02:23:10;;;;;;;4.35;2.72;;;;;;;24.03;56.00;94658.41;5080864;28;20094;-52
2022/06/12 02:25:38;;;;;;;6.63;3.10;;;;;;;24.03;56.52;94658.41;5076284;28;20055;-52
2022/06/12 02:28:12;;;;;;;4.00;3.00;;;;;;;23.98;55.96;94667.44;5061619;28;20023;-52
2022/06/12 02:30:40;;;;;;;3.80;2.65;;;;;;;23.98;56.13;94662.00;5068768;28;20042;-52
2022/06/12 02:33:24;;;;;;;4.75;3.72;;;;;;;23.97;56.28;94665.22;5067805;28;20015;-52
2022/06/12 02:35:57;;;;;;;3.38;2.75;;;;;;;23.99;56.16;94663.47;5079562;28;20027;-52
2022/06/12 02:38:32;;;;;;;3.88;3.30;;;;;;;23.98;56.17;94667.44;5066846;28;20494;-52
2022/06/12 02:41:08;;;;;;;4.03;2.85;;;;;;;23.96;56.10;94659.06;5054138;28;20141;-52
2022/06/12 02:43:34;;;;;;;3.67;2.92;;;;;;;23.96;55.75;94669.97;5065402;28;20039;-52
2022/06/12 02:46:08;;;;;;;7.20;3.10;;;;;;;23.92;55.87;94672.25;5102320;28;20774;-52
2022/06/12 02:48:34;;;;;;;3.63;2.92;;;;;;;23.95;55.92;94673.94;5067994;28;20552;-52
2022/06/12 02:51:14;;;;;;;4.50;3.00;;;;;;;23.96;56.07;94669.22;5073482;28;20097;-51
2022/06/12 02:54:10;;;;;;;3.45;2.90;;;;;;;23.97;55.92;94671.41;5098068;28;20031;-53
2022/06/12 02:56:59;;;;;;;4.47;2.70;;;;;;;23.94;56.13;94683.38;5083730;28;20031;-51
2022/06/12 03:00:08;;;;;;;3.97;3.08;;;;;;;23.89;56.24;94680.75;5071635;28;20048;-51
2022/06/12 03:02:36;;;;;;;4.72;3.03;;;;;;;23.92;55.96;94674.97;5061575;28;20107;-52
2022/06/12 03:05:20;;;;;;;3.65;2.90;;;;;;;23.89;55.81;94681.47;5079661;28;20639;-52
2022/06/12 03:07:45;;;;;;;5.13;3.10;;;;;;;23.93;56.13;94681.91;5098543;28;20031;-51
2022/06/12 03:10:13;;;;;;;3.65;2.65;;;;;;;23.94;55.73;94677.19;5098649;28;20472;-51
2022/06/12 03:12:39;;;;;;;3.95;3.10;;;;;;;23.91;56.17;94673.50;5079504;28;20036;-51
2022/06/12 03:15:05;;;;;;;3.65;3.00;;;;;;;23.92;55.83;94677.72;5097265;28;20472;-52
2022/06/12 03:17:31;;;;;;;4.72;3.20;;;;;;;23.91;56.38;94678.94;5081986;28;20735;-51
2022/06/12 03:19:56;;;;;;;4.72;3.00;;;;;;;23.94;55.72;94669.72;5077954;28;20023;-52
2022/06/12 03:22:27;;;;;;;4.85;2.90;;;;;;;23.94;56.07;94677.19;5095064;28;20063;-51
2022/06/12 03:24:58;;;;;;;4.85;3.10;;;;;;;23.94;55.98;94674.47;5092342;28;20035;-52
2022/06/12 03:27:32;;;;;;;4.95;3.20;;;;;;;23.91;55.77;94678.94;5091082;28;20062;-52
2022/06/12 03:30:01;;;;;;;3.83;2.95;;;;;;;23.95;55.93;94676.66;5086987;28;20705;-51
2022/06/12 03:32:38;;;;;;;4.63;3.08;;;;;;;23.96;56.15;94675.41;5089866;28;20055;-53
2022/06/12 03:35:33;;;;;;;5.25;3.17;;;;;;;23.91;56.00;94668.03;5089898;28;20556;-52
2022/06/12 03:38:08;;;;;;;4.82;3.67;;;;;;;23.91;55.93;94673.50;5041812;28;20047;-51
2022/06/12 03:40:40;;;;;;;4.95;3.40;;;;;;;23.87;56.31;94675.81;5081563;28;20040;-51
2022/06/12 03:43:15;;;;;;;4.65;3.13;;;;;;;23.92;55.89;94669.53;5062385;28;20027;-52
2022/06/12 03:46:13;;;;;;;5.28;3.25;;;;;;;23.89;56.02;94670.56;5086103;28;20019;-51
2022/06/12 03:49:03;;;;;;;5.00;3.20;;;;;;;23.89;56.06;94670.56;5069053;28;20032;-52
2022/06/12 03:51:43;;;;;;;3.88;3.05;;;;;;;23.88;55.86;94669.13;5053441;28;20035;-52
2022/06/12 03:55:03;;;;;;;4.20;3.05;;;;;;;23.90;55.96;94677.50;5085343;28;20032;-53
2022/06/12 03:57:53;;;;;;;3.97;2.90;;;;;;;23.96;56.46;94680.88;5014266;28;20112;-51
2022/06/12 04:00:18;;;;;;;;;;;;;;;23.95;55.77;94675.94;5002205;28;20045;-52
2022/06/12 04:02:45;;;;;;;5.00;3.22;;;;;;;23.97;55.95;94681.59;5070488;28;19989;-51
2022/06/12 04:05:15;;;;;;;4.55;3.25;;;;;;;24.00;55.72;94681.28;5050912;28;20032;-52
2022/06/12 04:07:43;;;;;;;;;;;;;;;23.97;56.03;94676.88;5055204;28;20035;-52
2022/06/12 04:10:09;;;;;;;3.95;2.88;;;;;;;24.02;56.04;94678.78;5062408;28;19977;-52
2022/06/12 04:12:35;;;;;;;4.20;3.55;;;;;;;24.01;56.05;94671.13;5056548;28;20548;-53
2022/06/12 04:15:17;;;;;;;4.05;3.47;;;;;;;24.08;56.39;94684.91;5073880;28;20036;-53
2022/06/12 04:17:43;;;;;;;3.97;3.38;;;;;;;24.11;55.78;94686.56;5101388;28;20035;-52
2022/06/12 04:20:17;;;;;;;3.88;3.38;;;;;;;24.17;55.74;94695.41;5069563;28;20456;-53
2022/06/12 04:22:56;;;;;;;5.60;3.60;;;;;;;24.16;55.76;94693.94;5068891;28;20388;-52
2022/06/12 04:25:31;;;;;;;5.03;3.50;;;;;;;24.15;55.68;94700.63;5087943;28;20024;-53
2022/06/12 04:27:56;;;;;;;4.13;3.65;;;;;;;24.18;55.10;94691.41;5091591;28;20112;-52
2022/06/12 04:30:34;;;;;;;3.88;3.47;;;;;;;24.22;54.96;94694.56;5079744;28;20032;-51
2022/06/12 04:33:25;;;;;;;5.60;3.75;;;;;;;24.21;54.69;94695.81;5091866;28;20027;-51
2022/06/12 04:35:56;;;;;;;5.10;3.90;;;;;;;24.21;55.05;94695.81;5089127;28;20119;-51
2022/06/12 04:38:22;;;;;;;4.22;3.75;;;;;;;24.19;55.60;94698.34;5096143;28;20028;-51
2022/06/12 04:40:48;;;;;;;5.68;4.22;;;;;;;24.13;55.40;94700.44;5091398;28;20066;-51
2022/06/12 04:43:13;;;;;;;5.35;3.92;;;;;;;24.10;55.39;94696.00;5085406;28;20027;-52
2022/06/12 04:45:39;;;;;;;7.13;4.80;;;;;;;24.04;55.58;94706.28;5065570;28;20043;-51
2022/06/12 04:48:05;;;;;;;4.78;4.10;;;;;;;24.09;55.85;94694.53;5075639;28;20133;-51
2022/06/12 04:50:31;;;;;;;5.35;4.05;;;;;;;24.15;55.37;94697.91;5052878;28;20449;-52
2022/06/12 04:52:56;;;;;;;5.88;4.60;;;;;;;24.13;55.85;94703.16;5089535;28;20028;-52
2022/06/12 04:55:22;;;;;;;6.53;4.28;;;;;;;24.11;55.66;94708.41;5097609;28;20032;-51
2022/06/12 04:57:47;;;;;;;6.10;4.30;;;;;;;24.15;55.70;94714.28;5091587;28;20035;-51
2022/06/12 05:00:20;;;;;;;6.45;4.28;;;;;;;24.15;55.79;94714.28;5097100;28;20459;-51
2022/06/12 05:02:45;;;;;;;6.80;4.40;;;;;;;24.19;55.38;94708.53;5101527;28;20020;-51
2022/06/12 05:05:11;;;;;;;7.45;4.28;;;;;;;24.19;55.34;94708.53;5102710;28;20024;-51
2022/06/12 05:07:36;;;;;;;6.05;4.25;;;;;;;24.20;55.20;94709.97;5095605;28;20016;-52
2022/06/12 05:10:02;;;;;;;5.75;4.70;;;;;;;24.21;55.46;94712.19;5105403;28;20043;-53
2022/06/12 05:12:27;;;;;;;6.22;4.18;;;;;;;24.26;55.21;94713.34;5095912;28;20106;-50
2022/06/12 05:14:53;;;;;;;6.78;4.03;;;;;;;24.28;55.33;94722.50;5086982;28;20557;-51
2022/06/12 05:17:19;;;;;;;4.93;4.43;;;;;;;24.30;55.44;94714.50;5093279;28;20019;-51
2022/06/12 05:19:45;;;;;;;6.15;4.80;;;;;;;24.40;55.02;94710.16;5093398;28;20039;-52
2022/06/12 05:22:11;;;;;;;5.80;4.35;;;;;;;24.44;55.38;94713.31;5073683;28;20051;-51
2022/06/12 05:24:37;;;;;;;4.85;4.35;;;;;;;24.44;55.42;94718.78;5079168;28;20055;-52
2022/06/12 05:27:04;;;;;;;7.00;4.35;;;;;;;24.52;55.14;94708.69;5082089;28;20235;-51
2022/06/12 05:29:33;;;;;;;5.80;4.13;;;;;;;24.58;54.99;94714.81;5095094;28;20035;-58
2022/06/12 05:31:59;;;;;;;7.00;4.50;;;;;;;24.63;54.40;94709.22;5067309;28;20020;-52
2022/06/12 05:34:25;;;;;;;4.47;4.07;;;;;;;24.73;54.50;94712.28;5097572;28;20418;-52
2022/06/12 05:36:52;;;;;;;7.68;4.32;;;;;;;24.85;54.14;94706.81;5105490;28;20028;-53
2022/06/12 05:39:17;;;;;;;4.40;4.00;;;;;;;24.96;53.71;94714.81;5097519;28;20494;-51
2022/06/12 05:41:44;;;;;;;6.28;4.00;;;;;;;25.06;53.17;94715.13;5106369;28;20024;-52
2022/06/12 05:44:10;;;;;;;5.57;4.63;;;;;;;25.08;53.24;94716.09;5104012;28;20028;-53
2022/06/12 05:46:35;;;;;;;5.18;4.43;;;;;;;25.14;53.19;94724.16;5104172;28;20146;-52
2022/06/12 05:49:01;;;;;;;4.78;4.00;;;;;;;25.24;52.73;94723.19;5105471;28;20029;-53
2022/06/12 05:51:26;;;;;;;5.43;4.47;;;;;;;25.27;52.85;94716.66;5086022;28;20039;-53
2022/06/12 05:53:52;;;;;;;7.75;4.30;;;;;;;25.44;52.29;94720.53;5098657;28;20072;-52
2022/06/12 05:56:19;;;;;;;5.30;4.57;;;;;;;25.41;52.45;94726.31;5104828;28;20509;-52
2022/06/12 05:58:45;;;;;;;4.72;4.05;;;;;;;25.44;52.01;94719.78;5090478;28;20055;-52
2022/06/12 06:01:13;;;;;;;6.18;4.20;;;;;;;25.51;52.04;94719.13;5085379;28;20053;-52
2022/06/12 06:03:38;;;;;;;5.80;4.50;;;;;;;25.59;51.76;94719.94;5102541;28;20028;-54
2022/06/12 06:06:08;;;;;;;5.28;4.55;;;;;;;25.64;51.84;94727.31;5092882;28;20034;-50
2022/06/12 06:08:33;;;;;;;5.63;4.35;;;;;;;25.68;51.82;94733.22;5066763;28;20028;-52
2022/06/12 06:10:59;;;;;;;4.65;4.18;;;;;;;25.71;51.71;94737.63;5082763;28;20093;-51
2022/06/12 06:13:25;;;;;;;7.10;4.47;;;;;;;25.76;52.32;94739.50;5081288;28;20929;-53
2022/06/12 06:15:50;;;;;;;5.35;4.45;;;;;;;25.82;51.60;94744.31;5088260;28;20031;-52
2022/06/12 06:18:17;;;;;;;6.07;4.28;;;;;;;25.82;51.18;94744.31;5088910;28;20081;-54
2022/06/12 06:20:42;;;;;;;6.53;4.43;;;;;;;25.73;51.53;94746.03;5093194;28;20039;-54
2022/06/12 06:23:08;;;;;;;5.20;4.53;;;;;;;25.78;51.37;94747.91;5075291;28;20035;-54
2022/06/12 06:25:34;;;;;;;6.88;4.45;;;;;;;25.80;50.92;94752.31;5094356;28;20036;-52
2022/06/12 06:27:59;;;;;;;5.30;4.28;;;;;;;25.85;50.98;94754.19;5084622;28;20760;-52
2022/06/12 06:30:26;;;;;;;5.32;4.78;;;;;;;25.93;51.03;94755.03;5061069;28;20516;-51
2022/06/12 06:32:51;;;;;;;6.15;4.55;;;;;;;25.97;50.56;94760.88;5077553;28;20118;-52
2022/06/12 06:35:17;;;;;;;5.30;4.53;;;;;;;25.94;50.69;94759.22;5088605;28;20032;-51
2022/06/12 06:37:43;;;;;;;5.68;4.40;;;;;;;25.95;50.63;94760.69;5086739;28;20073;-51
2022/06/12 06:40:09;;;;;;;5.10;4.60;;;;;;;25.98;50.97;94765.09;5088571;28;20031;-51
2022/06/12 06:42:35;;;;;;;4.93;4.25;;;;;;;26.01;50.84;94766.78;5089597;28;20036;-51
2022/06/12 06:47:45;;;;;;;5.20;4.30;;;;;;;25.94;50.69;94766.69;5093952;28;20097;-52
2022/06/12 06:50:12;;;;;;;5.72;4.25;;;;;;;26.02;50.44;94771.00;5095814;28;20133;-51
2022/06/12 06:52:38;;;;;;;7.35;4.90;;;;;;;26.10;50.90;94774.53;5062035;28;20043;-50
2022/06/12 06:55:04;;;;;;;4.70;4.10;;;;;;;26.10;50.59;94780.00;5097720;28;20016;-51
2022/06/12 06:57:29;;;;;;;6.32;4.65;;;;;;;26.10;50.71;94769.06;5072444;28;20066;-51
2022/06/12 06:59:55;;;;;;;5.80;4.68;;;;;;;26.15;50.87;94775.66;5055041;28;20050;-55
2022/06/12 07:02:22;;;;;;;5.20;4.60;;;;;;;26.18;50.60;94772.59;5042182;28;20048;-54
2022/06/12 07:04:47;;;;;;;5.38;4.45;;;;;;;26.16;50.81;94772.41;5045176;28;20024;-52
2022/06/12 07:07:13;;;;;;;5.25;4.57;;;;;;;26.14;50.54;94772.16;5048581;28;20063;-51
2022/06/12 07:09:39;;;;;;;6.90;4.80;;;;;;;26.07;50.44;94778.31;5055746;28;20036;-51
2022/06/12 07:12:06;;;;;;;6.10;4.88;;;;;;;26.12;50.54;94769.25;5051676;28;20055;-53
2022/06/12 07:14:31;;;;;;;5.40;4.47;;;;;;;26.19;50.50;94771.31;5041537;28;20064;-53
2022/06/12 07:16:57;;;;;;;7.15;4.15;;;;;;;26.30;50.19;94769.06;5041662;28;20993;-54
2022/06/12 07:19:24;;;;;;;5.32;4.28;;;;;;;26.35;50.26;94772.94;5049012;28;20165;-53
2022/06/12 07:21:49;;;;;;;5.68;4.53;;;;;;;26.38;49.67;94771.88;5051443;28;20149;-53
2022/06/12 07:24:15;;;;;;;5.53;4.50;;;;;;;26.30;50.51;94782.03;5058718;28;20431;-52
2022/06/12 07:26:42;;;;;;;5.30;4.25;;;;;;;26.53;49.93;94777.47;5060746;28;20115;-52
2022/06/12 07:29:08;;;;;;;5.93;4.90;;;;;;;26.59;49.47;94775.34;5053549;28;20074;-55
2022/06/12 07:31:34;;;;;;;6.65;4.65;;;;;;;26.62;49.49;94775.03;5053879;28;20024;-52
2022/06/12 07:34:00;;;;;;;5.80;4.43;;;;;;;26.68;49.45;94777.59;5055665;28;20483;-52
2022/06/12 07:36:25;;;;;;;6.35;4.32;;;;;;;26.68;49.85;94783.09;5043592;28;20075;-53
2022/06/12 07:38:51;;;;;;;6.28;4.47;;;;;;;26.59;50.21;94789.78;5049151;28;20394;-54
2022/06/12 07:41:17;;;;;;;6.40;4.85;;;;;;;26.63;49.90;94786.72;5047713;28;20056;-52
2022/06/12 07:43:43;;;;;;;5.07;4.43;;;;;;;26.72;49.79;94788.97;5045431;28;20111;-53
2022/06/12 07:46:09;;;;;;;5.78;4.20;;;;;;;26.68;49.63;94788.56;5044453;28;20025;-53
2022/06/12 07:48:35;;;;;;;6.45;4.35;;;;;;;26.59;49.99;94798.00;5058201;28;20043;-53
2022/06/12 07:51:03;;;;;;;7.57;4.53;;;;;;;26.51;49.88;94791.72;5051280;28;20486;-52
2022/06/12 07:53:30;;;;;;;6.40;4.50;;;;;;;26.76;49.89;94789.38;5053040;28;20075;-53
2022/06/12 07:55:56;;;;;;;6.15;4.65;;;;;;;26.71;49.86;94790.97;5066992;28;20184;-52
2022/06/12 07:58:25;;;;;;;6.90;4.22;;;;;;;26.73;49.51;94793.19;5069837;28;20063;-53
2022/06/12 08:00:55;;;;;;;6.57;4.60;;;;;;;26.84;49.48;94791.59;5090723;28;20035;-52
2022/06/12 08:03:20;;;;;;;7.75;4.82;;;;;;;26.85;48.87;94793.09;5093938;28;20035;-53
2022/06/12 08:05:46;;;;;;;5.55;3.97;;;;;;;26.99;48.94;94786.25;5099344;28;20024;-53
2022/06/12 08:08:11;;;;;;;15.70;4.90;;;;;;;27.03;49.25;94786.66;5072166;28;20012;-52
2022/06/12 08:10:37;;;;;;;8.80;4.50;;;;;;;27.15;48.58;94796.06;5096397;28;20038;-52
2022/06/12 08:13:04;;;;;;;6.32;4.38;;;;;;;27.22;47.82;94798.13;5093547;28;20440;-52
2022/06/12 08:15:30;;;;;;;7.13;4.32;;;;;;;27.27;48.08;94797.22;5091525;28;20027;-52
2022/06/12 08:17:59;;;;;;;8.02;4.60;;;;;;;27.32;47.94;94793.59;5093652;28;20047;-52
2022/06/12 08:20:25;;;;;;;7.90;4.35;;;;;;;27.27;48.06;94799.97;5096906;28;20034;-53
2022/06/12 08:23:02;;;;;;;6.40;4.50;;;;;;;27.29;48.18;94800.16;5083431;28;20043;-50
2022/06/12 08:25:28;;;;;;;6.93;4.60;;;;;;;27.42;47.92;94805.53;5081085;28;20049;-51
2022/06/12 08:27:54;;;;;;;8.18;4.05;;;;;;;27.46;48.50;94808.69;5083964;28;20040;-51
2022/06/12 08:30:20;;;;;;;7.65;4.20;;;;;;;27.41;48.30;94804.06;5083189;28;20589;-51
2022/06/12 08:32:46;;;;;;;6.00;3.97;;;;;;;27.42;48.13;94805.53;5084629;28;20020;-50
2022/06/12 08:35:30;;;;;;;7.57;4.90;;;;;;;27.35;48.30;94803.47;5066402;28;20029;-51
2022/06/12 08:37:55;;;;;;;6.43;4.40;;;;;;;27.44;48.04;94805.72;5085208;28;20524;-51
2022/06/12 08:40:28;;;;;;;5.63;4.53;;;;;;;27.53;48.57;94816.22;5085176;28;20024;-51
2022/06/12 08:43:29;;;;;;;6.28;4.60;;;;;;;27.35;48.75;94817.19;5068168;28;20530;-51
2022/06/12 08:45:55;;;;;;;5.05;4.43;;;;;;;27.49;48.20;94813.09;5060240;28;20032;-52
2022/06/12 08:48:22;;;;;;;7.20;4.30;;;;;;;27.52;48.13;94803.78;5091297;28;20038;-51
2022/06/12 08:50:47;;;;;;;6.32;4.32;;;;;;;27.58;48.57;94818.06;5098295;28;20023;-51
2022/06/12 08:53:18;;;;;;;6.00;4.43;;;;;;;27.68;48.16;94816.31;5076045;28;20035;-51
2022/06/12 08:55:55;;;;;;;5.25;4.35;;;;;;;27.57;48.28;94822.09;5082903;28;20024;-51
2022/06/12 08:58:24;;;;;;;6.38;4.38;;;;;;;27.66;48.74;94821.59;5051847;28;20039;-51
2022/06/12 09:00:49;;;;;;;5.03;4.30;;;;;;;27.66;48.73;94813.38;5085240;28;20085;-52
2022/06/12 09:03:19;;;;;;;6.57;4.35;;;;;;;27.76;47.95;94812.31;5086058;28;20024;-51
2022/06/12 09:05:54;;;;;;;5.30;4.28;;;;;;;27.79;48.39;94814.69;5082890;28;20543;-51
2022/06/12 09:08:37;;;;;;;5.88;4.35;;;;;;;27.75;47.78;94806.06;5064822;28;20055;-51
2022/06/12 09:11:24;;;;;;;4.88;3.88;;;;;;;27.72;48.06;94811.19;5086137;28;20048;-51
2022/06/12 09:14:37;;;;;;;5.45;3.97;;;;;;;27.73;48.02;94813.41;5077561;28;20028;-51
2022/06/12 09:17:24;;;;;;;5.85;4.50;;;;;;;27.81;48.33;94814.88;5061327;28;20048;-51
2022/06/12 09:20:11;;;;;;;5.75;4.22;;;;;;;27.93;47.80;94807.78;5081890;28;20093;-51
2022/06/12 09:23:10;;;;;;;4.82;4.00;;;;;;;27.90;47.49;94817.13;5082679;28;20091;-52
2022/06/12 09:25:53;;;;;;;6.03;4.10;;;;;;;27.94;48.10;94811.28;5083344;28;20039;-51
2022/06/12 09:28:38;;;;;;;5.50;4.03;;;;;;;27.98;47.38;94812.41;5049630;28;20196;-52
2022/06/12 09:31:14;;;;;;;4.43;3.85;;;;;;;28.01;49.48;94816.81;5081608;28;20111;-53
2022/06/12 09:33:43;;;;;;;5.38;4.25;;;;;;;27.93;49.72;94813.28;5068596;28;20047;-52
2022/06/12 09:36:17;;;;;;;4.55;3.70;;;;;;;27.99;48.76;94819.34;5099811;28;20031;-51
2022/06/12 09:39:05;;;;;;;5.40;3.70;;;;;;;27.94;49.56;94825.03;5083815;28;20028;-51
2022/06/12 09:41:46;;;;;;;5.40;4.35;;;;;;;27.91;49.39;94823.34;5101694;28;20510;-50
2022/06/12 09:44:25;;;;;;;7.05;3.47;;;;;;;27.92;49.86;94825.56;5083188;28;20015;-50
2022/06/12 09:47:05;;;;;;;5.60;3.70;;;;;;;27.75;49.83;94830.06;5082559;28;20027;-51
2022/06/12 09:49:53;;;;;;;4.78;4.10;;;;;;;27.71;50.27;94826.19;5095732;28;21814;-50
2022/06/12 09:52:29;;;;;;;4.75;3.65;;;;;;;27.77;50.61;94822.75;5077202;28;20095;-52
2022/06/12 09:55:06;;;;;;;4.45;3.38;;;;;;;27.72;50.35;94822.19;5097634;28;20055;-51
2022/06/12 09:57:43;;;;;;;5.75;4.00;;;;;;;27.82;49.87;94816.38;5094017;28;20061;-52
2022/06/12 10:00:12;;;;;;;4.55;3.53;;;;;;;27.81;50.31;94820.38;5092165;28;20024;-52
2022/06/12 10:02:46;;;;;;;5.68;4.22;;;;;;;27.78;50.42;94820.72;5100495;28;20038;-52
2022/06/12 10:05:12;;;;;;;6.15;4.18;;;;;;;28.08;49.52;94810.59;5082483;28;20027;-51
2022/06/12 10:07:51;;;;;;;4.78;3.92;;;;;;;27.89;49.51;94812.91;5093767;28;20035;-53
2022/06/12 10:10:22;;;;;;;4.97;3.78;;;;;;;27.97;49.37;94804.72;5100990;28;20019;-53
2022/06/12 10:12:51;;;;;;;5.47;4.15;;;;;;;27.90;49.48;94806.13;5094727;28;20031;-53
2022/06/12 10:15:23;;;;;;;5.32;4.82;;;;;;;27.84;48.87;94808.31;5101093;28;20028;-52
2022/06/12 10:18:03;;;;;;;7.15;4.70;;;;;;;27.77;48.87;94809.03;5067904;28;20051;-51
2022/06/12 10:20:34;;;;;;;6.05;4.30;;;;;;;27.53;49.65;94805.25;5062340;28;20030;-51
2022/06/12 10:22:59;;;;;;;5.88;4.88;;;;;;;27.43;51.40;94809.75;5086724;28;20562;-52
2022/06/12 10:25:43;;;;;;;6.65;4.47;;;;;;;27.36;50.36;94802.22;5102671;28;20022;-58
2022/06/12 10:28:29;;;;;;;5.32;3.80;;;;;;;27.14;49.70;94808.28;5097596;28;20031;-52
2022/06/12 10:31:10;;;;;;;5.60;3.75;;;;;;;27.19;50.35;94803.94;5088342;28;20027;-52
2022/06/12 10:33:41;;;;;;;4.93;4.00;;;;;;;27.03;50.72;94805.84;5098041;28;20037;-51
2022/06/12 10:36:36;;;;;;;5.20;4.00;;;;;;;26.84;51.23;94808.06;5092569;28;20031;-51
2022/06/12 10:39:17;;;;;;;7.47;4.10;;;;;;;26.74;52.81;94802.84;5068115;28;20066;-52
2022/06/12 10:42:03;;;;;;;5.93;3.75;;;;;;;26.44;52.28;94805.34;5073972;28;20070;-51
2022/06/12 10:44:39;;;;;;;5.20;3.38;;;;;;;26.27;52.50;94804.25;5082671;28;20023;-49
2022/06/12 10:47:27;;;;;;;5.18;3.58;;;;;;;26.06;53.14;94806.94;5072035;28;20023;-51
2022/06/12 10:50:14;;;;;;;6.15;3.72;;;;;;;25.89;54.25;94808.59;5076975;28;20200;-58
2022/06/12 10:52:51;;;;;;;5.50;3.55;;;;;;;25.87;55.39;94811.13;5085011;28;20155;-50
2022/06/12 10:55:16;;;;;;;7.10;3.78;;;;;;;26.15;54.57;94798.28;5092707;28;20028;-54
2022/06/12 10:57:55;;;;;;;5.22;3.60;;;;;;;26.15;54.83;94798.28;5065485;28;20502;-51
2022/06/12 11:00:24;;;;;;;4.38;3.55;;;;;;;26.16;54.81;94794.28;5070228;28;20475;-51
2022/06/12 11:03:06;;;;;;;5.38;3.67;;;;;;;26.16;54.68;94794.28;5066797;28;20730;-53
2022/06/12 11:05:38;;;;;;;4.47;3.75;;;;;;;26.30;55.06;94793.00;5073080;28;20051;-52
2022/06/12 11:08:22;;;;;;;4.43;3.20;;;;;;;26.37;53.29;94792.34;5089293;28;20151;-51
2022/06/12 11:11:12;;;;;;;4.72;3.67;;;;;;;26.14;54.32;94796.09;5093035;28;20020;-52
2022/06/12 11:14:01;;;;;;;5.63;3.60;;;;;;;26.09;53.61;94786.72;5092746;28;20050;-52
2022/06/12 11:16:26;;;;;;;4.97;3.60;;;;;;;26.25;53.06;94790.34;5085334;28;20032;-53
2022/06/12 11:19:01;;;;;;;4.90;3.78;;;;;;;26.41;51.70;94793.47;5089679;28;20024;-53
2022/06/12 11:21:57;;;;;;;4.82;3.05;;;;;;;26.35;51.45;94800.31;5083533;28;20028;-54
2022/06/12 11:24:31;;;;;;;4.80;3.17;;;;;;;26.47;51.03;94790.56;5050069;28;20099;-51
2022/06/12 11:27:28;;;;;;;5.13;3.00;;;;;;;26.44;50.69;94791.66;5075649;28;20011;-51
2022/06/12 11:30:21;;;;;;;4.72;3.40;;;;;;;26.52;51.62;94792.47;5053357;28;20067;-53
2022/06/12 11:33:05;;;;;;;5.65;3.80;;;;;;;26.72;50.27;94788.97;5083217;28;20024;-50
2022/06/12 11:35:56;;;;;;;4.93;3.30;;;;;;;26.79;49.51;94789.03;5100712;28;20028;-52
2022/06/12 11:38:34;;;;;;;4.93;3.50;;;;;;;26.84;49.68;94775.16;5077634;28;20020;-52
2022/06/12 11:41:25;;;;;;;5.18;3.83;;;;;;;26.79;49.80;94784.28;5086867;28;20031;-51
2022/06/12 11:44:01;;;;;;;8.00;4.50;;;;;;;26.71;49.79;94792.97;5067544;28;20571;-54
2022/06/12 11:46:43;;;;;;;7.20;4.28;;;;;;;26.43;52.54;94790.19;5075938;28;20024;-50
2022/06/12 11:49:15;;;;;;;6.70;4.00;;;;;;;26.51;52.01;94791.00;5101058;28;20023;-52
2022/06/12 11:51:44;;;;;;;7.72;4.75;;;;;;;26.77;52.47;94789.56;5095922;28;20061;-53
2022/06/12 11:54:15;;;;;;;6.00;3.88;;;;;;;26.89;52.56;94776.31;5089832;28;20036;-53
2022/06/12 11:56:52;;;;;;;4.97;3.63;;;;;;;26.79;52.67;94773.31;5092260;28;20389;-52
2022/06/12 11:59:33;;;;;;;5.43;3.97;;;;;;;26.91;50.36;94774.53;5057625;28;20040;-53
2022/06/12 12:02:36;;;;;;;5.03;3.60;;;;;;;26.55;51.62;94774.97;5087724;28;20724;-51
2022/06/12 12:05:26;;;;;;;5.47;4.18;;;;;;;26.58;51.48;94769.13;5091211;28;20111;-53
2022/06/12 12:08:17;;;;;;;5.78;3.50;;;;;;;26.52;52.14;94778.78;5092760;28;20045;-53
2022/06/12 12:11:08;;;;;;;6.57;4.10;;;;;;;26.53;52.55;94788.44;5092421;28;20462;-53